sensor_id;sensor_type;location;lat;lon;timestamp;P1;durP1;ratioP1;P2;durP2;ratioP2
73569;SDS011;61850;54.980;73.298;2023-05-19T00:00:55;9.05;;;3.20;;
73569;SDS011;61850;54.980;73.298;2023-05-19T00:03:22;7.85;;;3.60;;
73569;SDS011;61850;54.980;73.298;2023-05-19T00:05:49;7.95;;;3.30;;
73569;SDS011;61850;54.980;73.298;2023-05-19T00:08:18;9.75;;;3.70;;
73569;SDS011;61850;54.980;73.298;2023-05-19T00:10:46;7.38;;;3.42;;
73569;SDS011;61850;54.980;73.298;2023-05-19T00:13:12;6.55;;;3.25;;
73569;SDS011;61850;54.980;73.298;2023-05-19T00:15:39;10.18;;;3.22;;
73569;SDS011;61850;54.980;73.298;2023-05-19T00:18:06;8.65;;;3.85;;
73569;SDS011;61850;54.980;73.298;2023-05-19T00:20:33;8.35;;;3.42;;
73569;SDS011;61850;54.980;73.298;2023-05-19T00:23:00;9.20;;;3.13;;
73569;SDS011;61850;54.980;73.298;2023-05-19T00:25:26;8.73;;;3.22;;
73569;SDS011;61850;54.980;73.298;2023-05-19T00:27:53;8.90;;;3.63;;
73569;SDS011;61850;54.980;73.298;2023-05-19T00:30:19;10.30;;;3.50;;
73569;SDS011;61850;54.980;73.298;2023-05-19T00:32:47;12.57;;;3.55;;
73569;SDS011;61850;54.980;73.298;2023-05-19T00:35:13;8.45;;;3.80;;
73569;SDS011;61850;54.980;73.298;2023-05-19T00:37:41;9.38;;;3.65;;
73569;SDS011;61850;54.980;73.298;2023-05-19T00:40:08;10.52;;;3.97;;
73569;SDS011;61850;54.980;73.298;2023-05-19T00:42:36;14.60;;;4.18;;
73569;SDS011;61850;54.980;73.298;2023-05-19T00:45:03;10.98;;;4.30;;
73569;SDS011;61850;54.980;73.298;2023-05-19T00:47:30;13.75;;;4.28;;
73569;SDS011;61850;54.980;73.298;2023-05-19T00:49:56;13.93;;;4.38;;
73569;SDS011;61850;54.980;73.298;2023-05-19T00:52:22;10.32;;;4.93;;
73569;SDS011;61850;54.980;73.298;2023-05-19T00:54:49;13.35;;;4.20;;
73569;SDS011;61850;54.980;73.298;2023-05-19T00:57:16;12.02;;;4.03;;
73569;SDS011;61850;54.980;73.298;2023-05-19T00:59:43;16.67;;;4.28;;
73569;SDS011;61850;54.980;73.298;2023-05-19T01:02:10;11.93;;;4.45;;
73569;SDS011;61850;54.980;73.298;2023-05-19T01:04:36;14.02;;;3.85;;
73569;SDS011;61850;54.980;73.298;2023-05-19T01:07:06;7.28;;;4.00;;
73569;SDS011;61850;54.980;73.298;2023-05-19T01:09:39;8.77;;;3.83;;
73569;SDS011;61850;54.980;73.298;2023-05-19T01:12:07;11.38;;;4.30;;
73569;SDS011;61850;54.980;73.298;2023-05-19T01:14:34;18.55;;;4.55;;
73569;SDS011;61850;54.980;73.298;2023-05-19T01:17:08;13.25;;;4.18;;
73569;SDS011;61850;54.980;73.298;2023-05-19T01:31:27;30.10;;;4.90;;
73569;SDS011;61850;54.980;73.298;2023-05-19T01:33:54;16.15;;;3.95;;
73569;SDS011;61850;54.980;73.298;2023-05-19T01:36:22;12.75;;;4.28;;
73569;SDS011;61850;54.980;73.298;2023-05-19T01:38:53;11.65;;;4.25;;
73569;SDS011;61850;54.980;73.298;2023-05-19T01:41:22;16.85;;;4.45;;
73569;SDS011;61850;54.980;73.298;2023-05-19T01:43:50;8.82;;;4.00;;
73569;SDS011;61850;54.980;73.298;2023-05-19T01:46:16;13.90;;;3.85;;
73569;SDS011;61850;54.980;73.298;2023-05-19T01:48:43;10.10;;;3.75;;
73569;SDS011;61850;54.980;73.298;2023-05-19T01:51:12;13.27;;;3.75;;
73569;SDS011;61850;54.980;73.298;2023-05-19T01:53:41;13.30;;;4.38;;
73569;SDS011;61850;54.980;73.298;2023-05-19T01:56:07;9.25;;;3.90;;
73569;SDS011;61850;54.980;73.298;2023-05-19T02:12:19;12.15;;;4.03;;
73569;SDS011;61850;54.980;73.298;2023-05-19T02:15:02;11.20;;;4.32;;
73569;SDS011;61850;54.980;73.298;2023-05-19T02:17:33;12.87;;;4.17;;
73569;SDS011;61850;54.980;73.298;2023-05-19T02:20:03;11.15;;;4.15;;
73569;SDS011;61850;54.980;73.298;2023-05-19T02:22:31;11.98;;;4.50;;
73569;SDS011;61850;54.980;73.298;2023-05-19T02:24:57;23.92;;;4.68;;
73569;SDS011;61850;54.980;73.298;2023-05-19T02:27:24;9.38;;;4.30;;
73569;SDS011;61850;54.980;73.298;2023-05-19T02:29:51;14.55;;;4.10;;
73569;SDS011;61850;54.980;73.298;2023-05-19T02:32:17;11.32;;;3.90;;
73569;SDS011;61850;54.980;73.298;2023-05-19T02:34:45;16.48;;;4.20;;
73569;SDS011;61850;54.980;73.298;2023-05-19T02:37:12;10.00;;;4.18;;
73569;SDS011;61850;54.980;73.298;2023-05-19T02:39:42;19.55;;;4.53;;
73569;SDS011;61850;54.980;73.298;2023-05-19T02:42:09;12.73;;;3.60;;
73569;SDS011;61850;54.980;73.298;2023-05-19T02:44:37;14.55;;;4.18;;
73569;SDS011;61850;54.980;73.298;2023-05-19T02:47:03;15.80;;;3.60;;
73569;SDS011;61850;54.980;73.298;2023-05-19T02:49:29;11.77;;;3.80;;
73569;SDS011;61850;54.980;73.298;2023-05-19T02:52:02;13.95;;;4.28;;
73569;SDS011;61850;54.980;73.298;2023-05-19T02:54:31;10.75;;;3.63;;
73569;SDS011;61850;54.980;73.298;2023-05-19T02:56:58;9.55;;;4.05;;
73569;SDS011;61850;54.980;73.298;2023-05-19T02:59:44;14.60;;;4.22;;
73569;SDS011;61850;54.980;73.298;2023-05-19T03:02:11;13.57;;;4.05;;
73569;SDS011;61850;54.980;73.298;2023-05-19T03:04:39;9.48;;;3.92;;
73569;SDS011;61850;54.980;73.298;2023-05-19T03:07:13;12.48;;;3.92;;
73569;SDS011;61850;54.980;73.298;2023-05-19T03:09:41;12.23;;;3.92;;
73569;SDS011;61850;54.980;73.298;2023-05-19T03:12:07;19.00;;;3.88;;
73569;SDS011;61850;54.980;73.298;2023-05-19T03:14:36;9.07;;;3.50;;
73569;SDS011;61850;54.980;73.298;2023-05-19T03:17:03;7.70;;;3.83;;
73569;SDS011;61850;54.980;73.298;2023-05-19T03:19:32;18.33;;;3.28;;
73569;SDS011;61850;54.980;73.298;2023-05-19T03:21:58;9.52;;;3.20;;
73569;SDS011;61850;54.980;73.298;2023-05-19T03:24:25;11.20;;;3.63;;
73569;SDS011;61850;54.980;73.298;2023-05-19T03:26:51;7.43;;;3.80;;
73569;SDS011;61850;54.980;73.298;2023-05-19T03:29:17;7.10;;;3.50;;
73569;SDS011;61850;54.980;73.298;2023-05-19T03:31:44;11.77;;;3.22;;
73569;SDS011;61850;54.980;73.298;2023-05-19T03:34:12;7.93;;;3.40;;
73569;SDS011;61850;54.980;73.298;2023-05-19T03:36:42;10.13;;;3.10;;
73569;SDS011;61850;54.980;73.298;2023-05-19T03:39:14;6.43;;;3.30;;
73569;SDS011;61850;54.980;73.298;2023-05-19T03:41:41;11.30;;;3.35;;
73569;SDS011;61850;54.980;73.298;2023-05-19T03:44:07;6.28;;;2.67;;
73569;SDS011;61850;54.980;73.298;2023-05-19T03:46:34;6.38;;;2.65;;
73569;SDS011;61850;54.980;73.298;2023-05-19T03:49:30;9.20;;;3.15;;
73569;SDS011;61850;54.980;73.298;2023-05-19T03:52:03;7.07;;;2.83;;
73569;SDS011;61850;54.980;73.298;2023-05-19T03:54:35;7.05;;;3.03;;
73569;SDS011;61850;54.980;73.298;2023-05-19T03:57:05;14.82;;;3.28;;
73569;SDS011;61850;54.980;73.298;2023-05-19T03:59:31;12.95;;;2.85;;
73569;SDS011;61850;54.980;73.298;2023-05-19T04:01:59;9.70;;;3.08;;
73569;SDS011;61850;54.980;73.298;2023-05-19T04:04:25;6.45;;;2.80;;
73569;SDS011;61850;54.980;73.298;2023-05-19T04:06:52;7.63;;;2.58;;
73569;SDS011;61850;54.980;73.298;2023-05-19T04:09:20;10.10;;;2.88;;
73569;SDS011;61850;54.980;73.298;2023-05-19T04:11:48;7.75;;;2.70;;
73569;SDS011;61850;54.980;73.298;2023-05-19T04:14:15;7.80;;;2.40;;
73569;SDS011;61850;54.980;73.298;2023-05-19T04:16:42;5.32;;;2.35;;
73569;SDS011;61850;54.980;73.298;2023-05-19T04:19:08;5.45;;;2.70;;
73569;SDS011;61850;54.980;73.298;2023-05-19T04:21:34;7.57;;;2.83;;
73569;SDS011;61850;54.980;73.298;2023-05-19T04:24:00;7.95;;;2.58;;
73569;SDS011;61850;54.980;73.298;2023-05-19T04:26:27;9.77;;;2.42;;
73569;SDS011;61850;54.980;73.298;2023-05-19T04:28:55;7.80;;;3.30;;
73569;SDS011;61850;54.980;73.298;2023-05-19T04:31:25;8.98;;;3.10;;
73569;SDS011;61850;54.980;73.298;2023-05-19T04:33:53;5.93;;;3.00;;
73569;SDS011;61850;54.980;73.298;2023-05-19T04:36:21;6.68;;;2.45;;
73569;SDS011;61850;54.980;73.298;2023-05-19T04:38:49;6.80;;;2.53;;
73569;SDS011;61850;54.980;73.298;2023-05-19T04:41:20;5.93;;;2.72;;
73569;SDS011;61850;54.980;73.298;2023-05-19T04:43:48;8.27;;;2.80;;
73569;SDS011;61850;54.980;73.298;2023-05-19T04:46:16;10.20;;;2.80;;
73569;SDS011;61850;54.980;73.298;2023-05-19T04:48:44;13.88;;;3.13;;
73569;SDS011;61850;54.980;73.298;2023-05-19T04:51:11;7.95;;;2.75;;
73569;SDS011;61850;54.980;73.298;2023-05-19T04:53:39;6.50;;;2.63;;
73569;SDS011;61850;54.980;73.298;2023-05-19T04:56:08;7.85;;;2.70;;
73569;SDS011;61850;54.980;73.298;2023-05-19T04:58:38;9.98;;;2.80;;
73569;SDS011;61850;54.980;73.298;2023-05-19T05:01:06;8.60;;;2.90;;
73569;SDS011;61850;54.980;73.298;2023-05-19T05:03:34;7.00;;;2.75;;
73569;SDS011;61850;54.980;73.298;2023-05-19T05:06:01;8.02;;;2.60;;
73569;SDS011;61850;54.980;73.298;2023-05-19T05:08:28;5.95;;;2.50;;
73569;SDS011;61850;54.980;73.298;2023-05-19T05:10:55;6.97;;;3.05;;
73569;SDS011;61850;54.980;73.298;2023-05-19T05:13:22;8.65;;;2.90;;
73569;SDS011;61850;54.980;73.298;2023-05-19T05:15:49;10.55;;;2.83;;
73569;SDS011;61850;54.980;73.298;2023-05-19T05:18:21;8.77;;;2.80;;
73569;SDS011;61850;54.980;73.298;2023-05-19T05:20:48;7.47;;;2.50;;
73569;SDS011;61850;54.980;73.298;2023-05-19T05:23:15;6.95;;;2.97;;
73569;SDS011;61850;54.980;73.298;2023-05-19T05:25:45;14.57;;;2.72;;
73569;SDS011;61850;54.980;73.298;2023-05-19T05:28:13;6.70;;;2.60;;
73569;SDS011;61850;54.980;73.298;2023-05-19T05:30:41;9.45;;;2.50;;
73569;SDS011;61850;54.980;73.298;2023-05-19T05:33:08;6.22;;;2.17;;
73569;SDS011;61850;54.980;73.298;2023-05-19T05:35:37;5.47;;;2.67;;
73569;SDS011;61850;54.980;73.298;2023-05-19T05:38:06;12.18;;;2.95;;
73569;SDS011;61850;54.980;73.298;2023-05-19T05:40:33;7.88;;;2.90;;
73569;SDS011;61850;54.980;73.298;2023-05-19T05:43:01;8.65;;;3.50;;
73569;SDS011;61850;54.980;73.298;2023-05-19T05:45:31;10.20;;;2.67;;
73569;SDS011;61850;54.980;73.298;2023-05-19T05:47:59;7.63;;;2.67;;
73569;SDS011;61850;54.980;73.298;2023-05-19T05:50:26;8.23;;;2.80;;
73569;SDS011;61850;54.980;73.298;2023-05-19T05:52:53;9.77;;;2.60;;
73569;SDS011;61850;54.980;73.298;2023-05-19T05:55:22;8.68;;;3.45;;
73569;SDS011;61850;54.980;73.298;2023-05-19T05:57:49;7.03;;;2.90;;
73569;SDS011;61850;54.980;73.298;2023-05-19T06:00:16;8.93;;;2.33;;
73569;SDS011;61850;54.980;73.298;2023-05-19T06:02:50;11.55;;;2.67;;
73569;SDS011;61850;54.980;73.298;2023-05-19T06:05:18;7.85;;;2.92;;
73569;SDS011;61850;54.980;73.298;2023-05-19T06:07:47;6.75;;;2.72;;
73569;SDS011;61850;54.980;73.298;2023-05-19T06:10:18;9.57;;;2.78;;
73569;SDS011;61850;54.980;73.298;2023-05-19T06:12:45;10.10;;;2.92;;
73569;SDS011;61850;54.980;73.298;2023-05-19T06:15:13;5.60;;;2.58;;
73569;SDS011;61850;54.980;73.298;2023-05-19T06:18:03;6.82;;;3.22;;
73569;SDS011;61850;54.980;73.298;2023-05-19T06:20:29;7.90;;;3.08;;
73569;SDS011;61850;54.980;73.298;2023-05-19T06:22:55;9.70;;;2.70;;
73569;SDS011;61850;54.980;73.298;2023-05-19T06:25:25;9.32;;;3.20;;
73569;SDS011;61850;54.980;73.298;2023-05-19T06:27:52;6.57;;;3.08;;
73569;SDS011;61850;54.980;73.298;2023-05-19T06:30:21;16.23;;;3.17;;
73569;SDS011;61850;54.980;73.298;2023-05-19T06:33:06;9.63;;;3.20;;
73569;SDS011;61850;54.980;73.298;2023-05-19T06:35:33;8.75;;;2.67;;
73569;SDS011;61850;54.980;73.298;2023-05-19T06:38:00;8.73;;;2.92;;
73569;SDS011;61850;54.980;73.298;2023-05-19T06:40:26;17.27;;;3.30;;
73569;SDS011;61850;54.980;73.298;2023-05-19T06:42:53;8.63;;;3.30;;
73569;SDS011;61850;54.980;73.298;2023-05-19T06:45:38;14.07;;;3.67;;
73569;SDS011;61850;54.980;73.298;2023-05-19T06:48:05;16.85;;;3.67;;
73569;SDS011;61850;54.980;73.298;2023-05-19T06:50:33;9.55;;;2.92;;
73569;SDS011;61850;54.980;73.298;2023-05-19T06:52:59;10.10;;;3.08;;
73569;SDS011;61850;54.980;73.298;2023-05-19T06:55:26;14.82;;;3.55;;
73569;SDS011;61850;54.980;73.298;2023-05-19T06:57:52;10.65;;;3.33;;
73569;SDS011;61850;54.980;73.298;2023-05-19T07:00:20;13.80;;;3.92;;
73569;SDS011;61850;54.980;73.298;2023-05-19T07:02:47;9.18;;;2.95;;
73569;SDS011;61850;54.980;73.298;2023-05-19T07:05:14;8.65;;;3.60;;
73569;SDS011;61850;54.980;73.298;2023-05-19T07:07:45;10.45;;;3.05;;
73569;SDS011;61850;54.980;73.298;2023-05-19T07:10:14;9.40;;;3.55;;
73569;SDS011;61850;54.980;73.298;2023-05-19T07:12:41;9.45;;;3.13;;
73569;SDS011;61850;54.980;73.298;2023-05-19T07:15:07;15.90;;;3.25;;
73569;SDS011;61850;54.980;73.298;2023-05-19T07:17:36;22.55;;;3.20;;
73569;SDS011;61850;54.980;73.298;2023-05-19T07:20:02;15.40;;;3.90;;
73569;SDS011;61850;54.980;73.298;2023-05-19T07:22:31;22.90;;;5.03;;
73569;SDS011;61850;54.980;73.298;2023-05-19T07:25:01;20.02;;;4.90;;
73569;SDS011;61850;54.980;73.298;2023-05-19T07:27:28;16.10;;;4.13;;
73569;SDS011;61850;54.980;73.298;2023-05-19T07:29:55;16.27;;;3.97;;
73569;SDS011;61850;54.980;73.298;2023-05-19T07:32:21;12.02;;;3.33;;
73569;SDS011;61850;54.980;73.298;2023-05-19T07:34:48;10.18;;;2.90;;
73569;SDS011;61850;54.980;73.298;2023-05-19T07:37:15;10.85;;;3.42;;
73569;SDS011;61850;54.980;73.298;2023-05-19T07:39:41;12.43;;;3.65;;
73569;SDS011;61850;54.980;73.298;2023-05-19T07:42:07;14.32;;;3.95;;
73569;SDS011;61850;54.980;73.298;2023-05-19T07:44:33;19.40;;;4.43;;
73569;SDS011;61850;54.980;73.298;2023-05-19T07:46:59;15.65;;;4.30;;
73569;SDS011;61850;54.980;73.298;2023-05-19T07:49:26;15.55;;;3.65;;
73569;SDS011;61850;54.980;73.298;2023-05-19T07:51:54;11.32;;;3.03;;
73569;SDS011;61850;54.980;73.298;2023-05-19T07:54:20;5.97;;;3.33;;
73569;SDS011;61850;54.980;73.298;2023-05-19T07:56:47;11.00;;;3.17;;
73569;SDS011;61850;54.980;73.298;2023-05-19T07:59:14;10.48;;;3.38;;
73569;SDS011;61850;54.980;73.298;2023-05-19T08:01:40;13.18;;;4.03;;
73569;SDS011;61850;54.980;73.298;2023-05-19T08:04:07;13.57;;;3.50;;
73569;SDS011;61850;54.980;73.298;2023-05-19T08:06:33;14.07;;;3.17;;
73569;SDS011;61850;54.980;73.298;2023-05-19T08:08:59;12.75;;;3.63;;
73569;SDS011;61850;54.980;73.298;2023-05-19T08:11:26;11.52;;;2.60;;
73569;SDS011;61850;54.980;73.298;2023-05-19T08:13:52;10.05;;;2.97;;
73569;SDS011;61850;54.980;73.298;2023-05-19T08:16:19;9.38;;;3.30;;
73569;SDS011;61850;54.980;73.298;2023-05-19T08:18:46;17.08;;;4.43;;
73569;SDS011;61850;54.980;73.298;2023-05-19T08:21:12;14.68;;;3.83;;
73569;SDS011;61850;54.980;73.298;2023-05-19T08:23:38;13.18;;;3.65;;
73569;SDS011;61850;54.980;73.298;2023-05-19T08:26:06;10.15;;;3.03;;
73569;SDS011;61850;54.980;73.298;2023-05-19T08:28:33;10.85;;;2.90;;
73569;SDS011;61850;54.980;73.298;2023-05-19T08:31:00;15.32;;;3.10;;
73569;SDS011;61850;54.980;73.298;2023-05-19T08:33:26;7.22;;;2.90;;
73569;SDS011;61850;54.980;73.298;2023-05-19T08:35:55;14.50;;;3.78;;
73569;SDS011;61850;54.980;73.298;2023-05-19T08:38:23;18.08;;;4.30;;
73569;SDS011;61850;54.980;73.298;2023-05-19T08:40:51;15.93;;;3.40;;
73569;SDS011;61850;54.980;73.298;2023-05-19T08:43:17;9.60;;;2.90;;
73569;SDS011;61850;54.980;73.298;2023-05-19T08:45:44;10.50;;;3.00;;
73569;SDS011;61850;54.980;73.298;2023-05-19T08:48:13;12.15;;;2.67;;
73569;SDS011;61850;54.980;73.298;2023-05-19T08:50:56;12.15;;;3.20;;
73569;SDS011;61850;54.980;73.298;2023-05-19T08:53:32;24.65;;;3.60;;
73569;SDS011;61850;54.980;73.298;2023-05-19T08:56:04;15.68;;;4.25;;
73569;SDS011;61850;54.980;73.298;2023-05-19T08:58:39;13.48;;;3.78;;
73569;SDS011;61850;54.980;73.298;2023-05-19T09:01:09;9.48;;;3.05;;
73569;SDS011;61850;54.980;73.298;2023-05-19T09:03:38;7.78;;;2.80;;
73569;SDS011;61850;54.980;73.298;2023-05-19T09:06:05;14.27;;;3.13;;
73569;SDS011;61850;54.980;73.298;2023-05-19T09:11:08;15.00;;;4.25;;
73569;SDS011;61850;54.980;73.298;2023-05-19T09:13:34;15.52;;;3.78;;
73569;SDS011;61850;54.980;73.298;2023-05-19T09:16:00;11.93;;;3.38;;
73569;SDS011;61850;54.980;73.298;2023-05-19T09:18:29;16.42;;;3.00;;
73569;SDS011;61850;54.980;73.298;2023-05-19T09:20:56;10.90;;;2.67;;
73569;SDS011;61850;54.980;73.298;2023-05-19T09:23:28;10.88;;;2.90;;
73569;SDS011;61850;54.980;73.298;2023-05-19T09:26:05;16.90;;;4.10;;
73569;SDS011;61850;54.980;73.298;2023-05-19T09:28:34;14.95;;;3.85;;
73569;SDS011;61850;54.980;73.298;2023-05-19T09:31:01;13.82;;;2.85;;
73569;SDS011;61850;54.980;73.298;2023-05-19T09:33:36;10.35;;;2.83;;
73569;SDS011;61850;54.980;73.298;2023-05-19T09:36:03;9.25;;;2.95;;
73569;SDS011;61850;54.980;73.298;2023-05-19T09:38:31;7.57;;;2.55;;
73569;SDS011;61850;54.980;73.298;2023-05-19T09:40:58;7.55;;;2.67;;
73569;SDS011;61850;54.980;73.298;2023-05-19T09:43:28;10.18;;;2.70;;
73569;SDS011;61850;54.980;73.298;2023-05-19T09:46:06;9.75;;;3.58;;
73569;SDS011;61850;54.980;73.298;2023-05-19T09:48:34;14.68;;;3.33;;
73569;SDS011;61850;54.980;73.298;2023-05-19T09:51:01;9.27;;;2.97;;
73569;SDS011;61850;54.980;73.298;2023-05-19T09:53:36;9.70;;;2.60;;
73569;SDS011;61850;54.980;73.298;2023-05-19T09:56:03;8.45;;;2.90;;
73569;SDS011;61850;54.980;73.298;2023-05-19T09:58:30;7.93;;;2.70;;
73569;SDS011;61850;54.980;73.298;2023-05-19T10:01:05;9.98;;;2.58;;
73569;SDS011;61850;54.980;73.298;2023-05-19T10:03:32;10.80;;;2.85;;
73569;SDS011;61850;54.980;73.298;2023-05-19T10:06:02;12.13;;;3.90;;
73569;SDS011;61850;54.980;73.298;2023-05-19T10:08:30;13.77;;;3.20;;
73569;SDS011;61850;54.980;73.298;2023-05-19T10:10:58;11.60;;;3.75;;
73569;SDS011;61850;54.980;73.298;2023-05-19T10:13:25;15.40;;;2.97;;
73569;SDS011;61850;54.980;73.298;2023-05-19T10:15:54;14.35;;;2.95;;
73569;SDS011;61850;54.980;73.298;2023-05-19T10:18:23;8.85;;;2.95;;
73569;SDS011;61850;54.980;73.298;2023-05-19T10:20:54;12.48;;;3.40;;
73569;SDS011;61850;54.980;73.298;2023-05-19T10:23:26;19.80;;;3.95;;
73569;SDS011;61850;54.980;73.298;2023-05-19T10:25:55;12.23;;;2.92;;
73569;SDS011;61850;54.980;73.298;2023-05-19T10:28:24;16.75;;;4.20;;
73569;SDS011;61850;54.980;73.298;2023-05-19T10:30:55;23.42;;;4.78;;
73569;SDS011;61850;54.980;73.298;2023-05-19T10:39:18;10.52;;;2.67;;
73569;SDS011;61850;54.980;73.298;2023-05-19T10:47:24;9.50;;;2.40;;
73569;SDS011;61850;54.980;73.298;2023-05-19T10:49:52;10.55;;;2.40;;
73569;SDS011;61850;54.980;73.298;2023-05-19T10:52:21;5.22;;;2.25;;
73569;SDS011;61850;54.980;73.298;2023-05-19T10:54:51;6.30;;;2.60;;
73569;SDS011;61850;54.980;73.298;2023-05-19T10:57:20;12.60;;;3.30;;
73569;SDS011;61850;54.980;73.298;2023-05-19T10:59:58;8.52;;;3.10;;
73569;SDS011;61850;54.980;73.298;2023-05-19T11:02:40;11.23;;;3.00;;
73569;SDS011;61850;54.980;73.298;2023-05-19T11:05:15;11.00;;;2.90;;
73569;SDS011;61850;54.980;73.298;2023-05-19T11:07:54;15.55;;;3.42;;
73569;SDS011;61850;54.980;73.298;2023-05-19T11:10:22;9.38;;;2.83;;
73569;SDS011;61850;54.980;73.298;2023-05-19T11:12:50;8.18;;;2.33;;
73569;SDS011;61850;54.980;73.298;2023-05-19T11:15:16;6.22;;;2.50;;
73569;SDS011;61850;54.980;73.298;2023-05-19T11:17:46;14.45;;;2.85;;
73569;SDS011;61850;54.980;73.298;2023-05-19T11:20:23;15.88;;;3.40;;
73569;SDS011;61850;54.980;73.298;2023-05-19T11:23:04;12.18;;;3.50;;
73569;SDS011;61850;54.980;73.298;2023-05-19T11:25:42;13.88;;;3.40;;
73569;SDS011;61850;54.980;73.298;2023-05-19T11:28:09;10.60;;;3.38;;
73569;SDS011;61850;54.980;73.298;2023-05-19T11:30:42;7.60;;;2.75;;
73569;SDS011;61850;54.980;73.298;2023-05-19T11:33:11;5.25;;;2.10;;
73569;SDS011;61850;54.980;73.298;2023-05-19T11:35:39;13.50;;;4.20;;
73569;SDS011;61850;54.980;73.298;2023-05-19T11:38:08;12.05;;;2.97;;
73569;SDS011;61850;54.980;73.298;2023-05-19T11:40:36;8.70;;;2.53;;
73569;SDS011;61850;54.980;73.298;2023-05-19T11:43:03;11.70;;;3.85;;
73569;SDS011;61850;54.980;73.298;2023-05-19T11:45:30;13.63;;;3.20;;
73569;SDS011;61850;54.980;73.298;2023-05-19T11:47:58;8.55;;;2.78;;
73569;SDS011;61850;54.980;73.298;2023-05-19T11:50:25;8.90;;;3.15;;
73569;SDS011;61850;54.980;73.298;2023-05-19T11:52:52;15.85;;;4.10;;
73569;SDS011;61850;54.980;73.298;2023-05-19T11:55:19;10.82;;;2.90;;
73569;SDS011;61850;54.980;73.298;2023-05-19T11:58:02;6.88;;;2.75;;
73569;SDS011;61850;54.980;73.298;2023-05-19T12:00:29;8.77;;;2.90;;
73569;SDS011;61850;54.980;73.298;2023-05-19T12:03:01;8.88;;;2.53;;
73569;SDS011;61850;54.980;73.298;2023-05-19T12:05:28;16.67;;;3.17;;
73569;SDS011;61850;54.980;73.298;2023-05-19T12:07:56;13.43;;;3.90;;
73569;SDS011;61850;54.980;73.298;2023-05-19T12:10:27;14.82;;;2.95;;
73569;SDS011;61850;54.980;73.298;2023-05-19T12:12:56;15.30;;;3.33;;
73569;SDS011;61850;54.980;73.298;2023-05-19T12:15:23;14.98;;;3.80;;
73569;SDS011;61850;54.980;73.298;2023-05-19T12:17:50;16.02;;;3.50;;
73569;SDS011;61850;54.980;73.298;2023-05-19T12:20:25;15.23;;;3.08;;
73569;SDS011;61850;54.980;73.298;2023-05-19T12:22:56;13.07;;;3.65;;
73569;SDS011;61850;54.980;73.298;2023-05-19T12:25:24;10.63;;;3.10;;
73569;SDS011;61850;54.980;73.298;2023-05-19T12:27:51;8.68;;;3.22;;
73569;SDS011;61850;54.980;73.298;2023-05-19T12:30:26;10.43;;;3.20;;
73569;SDS011;61850;54.980;73.298;2023-05-19T12:32:56;15.00;;;4.20;;
73569;SDS011;61850;54.980;73.298;2023-05-19T12:35:30;11.15;;;3.83;;
73569;SDS011;61850;54.980;73.298;2023-05-19T12:38:04;14.70;;;3.60;;
73569;SDS011;61850;54.980;73.298;2023-05-19T12:40:34;11.10;;;3.38;;
73569;SDS011;61850;54.980;73.298;2023-05-19T12:43:08;13.65;;;3.58;;
73569;SDS011;61850;54.980;73.298;2023-05-19T12:45:43;11.77;;;3.67;;
73569;SDS011;61850;54.980;73.298;2023-05-19T12:48:11;11.35;;;3.50;;
73569;SDS011;61850;54.980;73.298;2023-05-19T12:50:41;12.20;;;3.78;;
73569;SDS011;61850;54.980;73.298;2023-05-19T12:53:10;13.10;;;3.22;;
73569;SDS011;61850;54.980;73.298;2023-05-19T12:55:40;10.18;;;3.60;;
73569;SDS011;61850;54.980;73.298;2023-05-19T12:58:10;10.27;;;3.73;;
73569;SDS011;61850;54.980;73.298;2023-05-19T13:00:41;8.73;;;3.50;;
73569;SDS011;61850;54.980;73.298;2023-05-19T13:03:18;9.23;;;3.70;;
73569;SDS011;61850;54.980;73.298;2023-05-19T13:05:46;10.75;;;3.83;;
73569;SDS011;61850;54.980;73.298;2023-05-19T13:08:17;16.52;;;3.63;;
73569;SDS011;61850;54.980;73.298;2023-05-19T13:10:45;8.80;;;3.20;;
73569;SDS011;61850;54.980;73.298;2023-05-19T13:13:12;9.75;;;3.53;;
73569;SDS011;61850;54.980;73.298;2023-05-19T13:15:40;11.05;;;3.90;;
73569;SDS011;61850;54.980;73.298;2023-05-19T13:18:08;12.02;;;4.40;;
73569;SDS011;61850;54.980;73.298;2023-05-19T13:20:38;12.55;;;4.20;;
73569;SDS011;61850;54.980;73.298;2023-05-19T13:23:08;16.63;;;4.38;;
73569;SDS011;61850;54.980;73.298;2023-05-19T13:25:35;13.18;;;4.47;;
73569;SDS011;61850;54.980;73.298;2023-05-19T13:28:02;10.55;;;4.28;;
73569;SDS011;61850;54.980;73.298;2023-05-19T13:30:34;9.65;;;4.20;;
73569;SDS011;61850;54.980;73.298;2023-05-19T13:33:01;7.55;;;4.20;;
73569;SDS011;61850;54.980;73.298;2023-05-19T13:35:28;8.52;;;3.55;;
73569;SDS011;61850;54.980;73.298;2023-05-19T13:37:55;9.35;;;3.72;;
73569;SDS011;61850;54.980;73.298;2023-05-19T13:40:24;12.88;;;4.28;;
73569;SDS011;61850;54.980;73.298;2023-05-19T13:42:54;8.48;;;3.60;;
73569;SDS011;61850;54.980;73.298;2023-05-19T13:45:23;8.05;;;3.88;;
73569;SDS011;61850;54.980;73.298;2023-05-19T13:47:49;10.27;;;4.32;;
73569;SDS011;61850;54.980;73.298;2023-05-19T13:50:17;11.57;;;3.92;;
73569;SDS011;61850;54.980;73.298;2023-05-19T13:52:44;11.70;;;4.22;;
73569;SDS011;61850;54.980;73.298;2023-05-19T13:55:12;13.35;;;4.60;;
73569;SDS011;61850;54.980;73.298;2023-05-19T13:57:39;11.43;;;4.55;;
73569;SDS011;61850;54.980;73.298;2023-05-19T14:00:06;9.45;;;4.10;;
73569;SDS011;61850;54.980;73.298;2023-05-19T14:02:39;15.27;;;4.25;;
73569;SDS011;61850;54.980;73.298;2023-05-19T14:05:05;8.88;;;3.90;;
73569;SDS011;61850;54.980;73.298;2023-05-19T14:07:33;7.93;;;4.43;;
73569;SDS011;61850;54.980;73.298;2023-05-19T14:10:00;8.75;;;4.40;;
73569;SDS011;61850;54.980;73.298;2023-05-19T14:12:28;10.43;;;4.13;;
73569;SDS011;61850;54.980;73.298;2023-05-19T14:14:55;11.73;;;4.30;;
73569;SDS011;61850;54.980;73.298;2023-05-19T14:17:21;18.83;;;5.25;;
73569;SDS011;61850;54.980;73.298;2023-05-19T14:19:48;17.20;;;5.72;;
73569;SDS011;61850;54.980;73.298;2023-05-19T14:22:14;19.90;;;5.57;;
73569;SDS011;61850;54.980;73.298;2023-05-19T14:24:43;28.88;;;6.03;;
73569;SDS011;61850;54.980;73.298;2023-05-19T14:27:09;19.58;;;5.55;;
73569;SDS011;61850;54.980;73.298;2023-05-19T14:29:35;17.95;;;5.50;;
73569;SDS011;61850;54.980;73.298;2023-05-19T14:32:02;12.43;;;5.03;;
73569;SDS011;61850;54.980;73.298;2023-05-19T14:34:30;13.90;;;5.00;;
73569;SDS011;61850;54.980;73.298;2023-05-19T14:36:57;14.13;;;4.80;;
73569;SDS011;61850;54.980;73.298;2023-05-19T14:39:28;15.77;;;5.07;;
73569;SDS011;61850;54.980;73.298;2023-05-19T14:41:56;15.80;;;5.00;;
73569;SDS011;61850;54.980;73.298;2023-05-19T14:44:28;14.45;;;5.50;;
73569;SDS011;61850;54.980;73.298;2023-05-19T14:46:56;15.73;;;5.45;;
73569;SDS011;61850;54.980;73.298;2023-05-19T14:49:22;13.30;;;5.57;;
73569;SDS011;61850;54.980;73.298;2023-05-19T14:51:49;11.80;;;5.47;;
73569;SDS011;61850;54.980;73.298;2023-05-19T14:54:16;10.70;;;5.47;;
73569;SDS011;61850;54.980;73.298;2023-05-19T14:56:42;15.02;;;5.63;;
73569;SDS011;61850;54.980;73.298;2023-05-19T14:59:11;15.05;;;5.63;;
73569;SDS011;61850;54.980;73.298;2023-05-19T15:01:38;15.23;;;5.97;;
73569;SDS011;61850;54.980;73.298;2023-05-19T15:04:04;18.80;;;6.43;;
73569;SDS011;61850;54.980;73.298;2023-05-19T15:06:31;14.75;;;6.03;;
73569;SDS011;61850;54.980;73.298;2023-05-19T15:09:04;12.70;;;6.55;;
73569;SDS011;61850;54.980;73.298;2023-05-19T15:11:31;16.13;;;6.65;;
73569;SDS011;61850;54.980;73.298;2023-05-19T15:13:58;19.45;;;6.60;;